Ribera, New Mexico
Current Conditions -  °F | °C
As of 5:53 PM on Saturday 25 Oct 2014 (Local Time) from KLVS Reporting Station
Clear Clear  
Wind Chill: 70°   Ceiling: Unl
Heat Index: 70°   Visibility: 10mi
Dew Point: 22°   Wind: 17mph
Humidity: 16%   Direction: 220°SW
Pressure: 30.21"   Gusts: NA
Location:  35.38°N, 105.45°W
Report Text: KLVS 252353Z AUTO 22015KT 10SM CLR 21/M06 A3021 RMK AO2 SLP150 T02111056 10272 20211 56008
Loading
Personal Weather Stations






























Interactive Weather Map
Tropical Storm Tracking
New forecast layout! Learn more

10-Day Weather Forecast

Advertisements
Track Severe Weather on mobile